TPC6432 KUTA-KHKA
Flight info
| Callsign | TPC6432 |
|---|---|
| Flight time | N/A |
| Altitude | 3500 |
| Route | DCT 345025N0902324W DCT 354527N0894938W DCT JIMIN |
| Aircraft | PIVI/L-SFG/C |
Departure
| Time | 2026-04-19 00:22 |
|---|---|
| Airport | Tunica Municipal Airport (KUTA) |
Arrival
| Time | N/A |
|---|---|
| Airport | Blytheville Municipal Airport (KHKA) |
| Time | Latitude | Longitude | Altitude | Speed | Heading |
|---|---|---|---|---|---|
| 2026-04-19 00:05 | 34.68369 | -90.34984 | 199 ft | 0 kts | 244° |
| 2026-04-19 00:11 | 34.68370 | -90.34984 | 217 ft | 0 kts | 243° |
| 2026-04-19 00:11 | 34.68369 | -90.34984 | 217 ft | 0 kts | 243° |
| 2026-04-19 00:12 | 34.68370 | -90.34984 | 217 ft | 0 kts | 243° |
| 2026-04-19 00:15 | 34.68369 | -90.34985 | 217 ft | 0 kts | 242° |
| 2026-04-19 00:16 | 34.68348 | -90.34964 | 202 ft | 5 kts | 122° |
| 2026-04-19 00:16 | 34.68326 | -90.34914 | 199 ft | 8 kts | 108° |
| 2026-04-19 00:16 | 34.68297 | -90.34863 | 199 ft | 8 kts | 151° |
| 2026-04-19 00:16 | 34.68229 | -90.34838 | 204 ft | 12 kts | 167° |
| 2026-04-19 00:17 | 34.68140 | -90.34813 | 199 ft | 13 kts | 167° |
| 2026-04-19 00:17 | 34.68044 | -90.34788 | 207 ft | 14 kts | 166° |
| 2026-04-19 00:17 | 34.67941 | -90.34759 | 200 ft | 11 kts | 166° |
| 2026-04-19 00:17 | 34.67892 | -90.34744 | 201 ft | 4 kts | 168° |
| 2026-04-19 00:18 | 34.67805 | -90.34719 | 206 ft | 16 kts | 167° |
| 2026-04-19 00:18 | 34.67693 | -90.34688 | 200 ft | 16 kts | 169° |
| 2026-04-19 00:18 | 34.67598 | -90.34660 | 199 ft | 12 kts | 169° |
| 2026-04-19 00:18 | 34.67524 | -90.34642 | 199 ft | 12 kts | 166° |
| 2026-04-19 00:19 | 34.67434 | -90.34616 | 199 ft | 14 kts | 165° |
| 2026-04-19 00:19 | 34.67366 | -90.34582 | 199 ft | 0 kts | 125° |
| 2026-04-19 00:20 | 34.67361 | -90.34568 | 199 ft | 8 kts | 100° |
| 2026-04-19 00:20 | 34.67361 | -90.34563 | 203 ft | 0 kts | 97° |
| 2026-04-19 00:21 | 34.67360 | -90.34560 | 203 ft | 6 kts | 95° |
| 2026-04-19 00:21 | 34.67395 | -90.34487 | 205 ft | 9 kts | 24° |
| 2026-04-19 00:21 | 34.67503 | -90.34498 | 202 ft | 47 kts | 351° |
| 2026-04-19 00:21 | 34.67786 | -90.34602 | 313 ft | 76 kts | 350° |
| 2026-04-19 00:22 | 34.68560 | -90.34778 | 673 ft | 83 kts | 352° |
| 2026-04-19 00:22 | 34.68928 | -90.34875 | 791 ft | 81 kts | 352° |
| 2026-04-19 00:22 | 34.69497 | -90.35036 | 965 ft | 83 kts | 352° |
| 2026-04-19 00:22 | 34.70240 | -90.35239 | 1188 ft | 82 kts | 351° |
| 2026-04-19 00:23 | 34.70767 | -90.35416 | 1394 ft | 82 kts | 350° |
| 2026-04-19 00:23 | 34.71151 | -90.35541 | 1448 ft | 89 kts | 349° |
| 2026-04-19 00:23 | 34.71769 | -90.35734 | 1478 ft | 94 kts | 350° |
| 2026-04-19 00:23 | 34.72405 | -90.35946 | 1490 ft | 95 kts | 349° |
| 2026-04-19 00:24 | 34.73042 | -90.36164 | 1497 ft | 94 kts | 349° |
| 2026-04-19 00:24 | 34.73666 | -90.36389 | 1500 ft | 93 kts | 350° |
| 2026-04-19 00:24 | 34.74286 | -90.36617 | 1504 ft | 93 kts | 350° |
| 2026-04-19 00:24 | 34.75105 | -90.36914 | 1499 ft | 92 kts | 349° |
| 2026-04-19 00:25 | 34.75526 | -90.37056 | 1500 ft | 94 kts | 349° |
| 2026-04-19 00:25 | 34.76362 | -90.37333 | 1499 ft | 94 kts | 349° |
| 2026-04-19 00:25 | 34.76778 | -90.37469 | 1500 ft | 93 kts | 349° |
| 2026-04-19 00:25 | 34.77405 | -90.37677 | 1515 ft | 94 kts | 350° |
| 2026-04-19 00:26 | 34.78043 | -90.37901 | 1517 ft | 95 kts | 349° |
| 2026-04-19 00:26 | 34.78670 | -90.38128 | 1508 ft | 94 kts | 349° |
| 2026-04-19 00:26 | 34.79306 | -90.38352 | 1501 ft | 96 kts | 349° |
| 2026-04-19 00:26 | 34.79947 | -90.38567 | 1497 ft | 94 kts | 349° |
| 2026-04-19 00:27 | 34.80577 | -90.38772 | 1504 ft | 95 kts | 349° |
| 2026-04-19 00:27 | 34.81226 | -90.38983 | 1505 ft | 97 kts | 349° |
| 2026-04-19 00:27 | 34.81873 | -90.39205 | 1512 ft | 96 kts | 349° |
| 2026-04-19 00:27 | 34.82523 | -90.39407 | 1522 ft | 95 kts | 359° |
| 2026-04-19 00:28 | 34.83090 | -90.39113 | 1563 ft | 96 kts | 39° |
| 2026-04-19 00:28 | 34.83498 | -90.38422 | 1511 ft | 101 kts | 49° |
| 2026-04-19 00:28 | 34.83862 | -90.37698 | 1553 ft | 99 kts | 51° |